Time;durP1;ratioP1;P1;durP2;ratioP2;P2;SDS_P1;SDS_P2;PMS_P1;PMS_P2;Temp;Humidity;BMP_temperature;BMP_pressure;BME280_temperature;BME280_humidity;BME280_pressure;Samples;Min_cycle;Max_cycle;Signal;HPM_P1;HPM_P2
2021/09/15 00:00:04;;;;;;;;;;;19.30;99.90;;;;;;1923465;73;20197;-70
2021/09/15 00:02:31;;;;;;;;;;;19.30;99.90;;;;;;1928593;74;20205;-70
2021/09/15 00:04:58;;;;;;;;;;;19.30;99.90;;;;;;1914897;74;20184;-71
2021/09/15 00:07:24;;;;;;;;;;;19.30;99.90;;;;;;1929892;73;20199;-70
2021/09/15 00:09:51;;;;;;;;;;;19.30;99.90;;;;;;1927004;74;20229;-72
2021/09/15 00:12:18;;;;;;;;;;;19.30;99.90;;;;;;1900027;74;20255;-71
2021/09/15 00:14:45;;;;;;;;;;;19.30;99.90;;;;;;1914461;73;20213;-70
2021/09/15 00:17:12;;;;;;;;;;;19.40;99.90;;;;;;1906964;73;20178;-71
2021/09/15 00:19:38;;;;;;;;;;;19.40;99.90;;;;;;1928028;74;20230;-72
2021/09/15 00:22:05;;;;;;;;;;;19.30;99.90;;;;;;1928981;74;20242;-71
2021/09/15 00:24:32;;;;;;;;;;;19.30;99.90;;;;;;1942690;73;20163;-72
2021/09/15 00:26:59;;;;;;;;;;;19.30;99.90;;;;;;1930537;73;20156;-72
2021/09/15 00:29:26;;;;;;;;;;;19.40;99.90;;;;;;1928650;73;20199;-70
2021/09/15 00:31:52;;;;;;;;;;;19.40;99.90;;;;;;1931199;73;20199;-72
2021/09/15 00:34:19;;;;;;;;;;;19.40;99.90;;;;;;1928391;74;20144;-70
2021/09/15 00:36:46;;;;;;;;;;;19.40;99.90;;;;;;1910434;74;20295;-71
2021/09/15 00:39:13;;;;;;;;;;;19.40;99.90;;;;;;1936690;73;20256;-71
2021/09/15 00:41:40;;;;;;;;;;;19.40;99.90;;;;;;1930004;74;20524;-70
2021/09/15 00:44:08;;;;;;;;;;;19.40;99.90;;;;;;1930306;73;20207;-70
2021/09/15 00:46:35;;;;;;;;;;;19.40;99.90;;;;;;1922731;73;20187;-70
2021/09/15 00:49:02;;;;;;;;;;;19.40;99.90;;;;;;1965332;73;20289;-70
2021/09/15 00:51:30;;;;;;;;;;;19.40;99.90;;;;;;1911688;74;20214;-70
2021/09/15 00:53:56;;;;;;;;;;;19.30;99.90;;;;;;1962563;73;20193;-70
2021/09/15 00:56:25;;;;;;;;;;;19.30;99.90;;;;;;1914563;73;20146;-71
2021/09/15 00:58:52;;;;;;;;;;;19.30;99.90;;;;;;1907058;73;20243;-70
2021/09/15 01:01:19;;;;;;;;;;;19.30;99.90;;;;;;1959846;73;20174;-70
2021/09/15 01:03:45;;;;;;;;;;;19.20;99.90;;;;;;1937303;73;20437;-70
2021/09/15 01:06:12;;;;;;;;;;;19.30;99.90;;;;;;1900719;73;20166;-70
2021/09/15 01:08:40;;;;;;;;;;;19.30;99.90;;;;;;1931420;73;20192;-70
2021/09/15 01:11:06;;;;;;;;;;;19.20;99.90;;;;;;1928600;74;20199;-70
2021/09/15 01:13:34;;;;;;;;;;;19.20;99.90;;;;;;1910193;73;20209;-71
2021/09/15 01:16:00;;;;;;;;;;;19.20;99.90;;;;;;1905923;74;20237;-71
2021/09/15 01:18:27;;;;;;;;;;;19.30;99.90;;;;;;1911591;73;20155;-71
2021/09/15 01:20:55;;;;;;;;;;;19.20;99.90;;;;;;1916546;73;20169;-70
2021/09/15 01:23:22;;;;;;;;;;;19.20;99.90;;;;;;1930662;74;20140;-70
2021/09/15 01:25:49;;;;;;;;;;;19.20;99.90;;;;;;1909291;74;20569;-71
2021/09/15 01:28:16;;;;;;;;;;;19.20;99.90;;;;;;1942452;73;20207;-71
2021/09/15 01:30:42;;;;;;;;;;;19.20;99.90;;;;;;1910710;74;20244;-69
2021/09/15 01:33:11;;;;;;;;;;;19.10;99.90;;;;;;1927729;74;20177;-71
2021/09/15 01:35:38;;;;;;;;;;;19.10;99.90;;;;;;1930232;73;20191;-71
2021/09/15 01:38:04;;;;;;;;;;;19.10;99.90;;;;;;1939457;73;20144;-71
2021/09/15 01:40:31;;;;;;;;;;;19.10;99.90;;;;;;1914768;74;20193;-71
2021/09/15 01:42:58;;;;;;;;;;;19.10;99.90;;;;;;1908110;73;20148;-71
2021/09/15 01:45:25;;;;;;;;;;;19.10;99.90;;;;;;1930689;73;20237;-71
2021/09/15 01:47:52;;;;;;;;;;;19.10;99.90;;;;;;1934967;73;20169;-71
2021/09/15 01:50:19;;;;;;;;;;;19.10;99.90;;;;;;1910171;74;20229;-71
2021/09/15 01:52:46;;;;;;;;;;;19.10;99.90;;;;;;1915390;73;20241;-70
2021/09/15 01:55:20;;;;;;;;;;;19.20;99.90;;;;;;1929177;73;20446;-70
2021/09/15 01:57:47;;;;;;;;;;;19.10;99.90;;;;;;1922756;74;20899;-70
2021/09/15 02:00:14;;;;;;;;;;;19.10;99.90;;;;;;1928052;74;20191;-70
2021/09/15 02:02:41;;;;;;;;;;;19.10;99.90;;;;;;1928273;74;20195;-71
2021/09/15 02:05:08;;;;;;;;;;;19.10;99.90;;;;;;1898713;74;20268;-71
2021/09/15 02:07:35;;;;;;;;;;;19.00;99.90;;;;;;1909155;74;20152;-71
2021/09/15 02:10:03;;;;;;;;;;;19.00;99.90;;;;;;1942308;73;20187;-71
2021/09/15 02:12:30;;;;;;;;;;;19.00;99.90;;;;;;1929555;74;20187;-70
2021/09/15 02:14:56;;;;;;;;;;;19.00;99.90;;;;;;1930676;74;20199;-69
2021/09/15 02:17:23;;;;;;;;;;;19.00;99.90;;;;;;1911907;74;20146;-71
2021/09/15 02:19:50;;;;;;;;;;;19.00;99.90;;;;;;1898837;74;20194;-70
2021/09/15 02:22:17;;;;;;;;;;;19.00;99.90;;;;;;1897813;74;20197;-71
2021/09/15 02:24:43;;;;;;;;;;;19.00;99.90;;;;;;1935915;73;20139;-71
2021/09/15 02:27:10;;;;;;;;;;;19.00;99.90;;;;;;1956761;73;20162;-70
2021/09/15 02:29:37;;;;;;;;;;;19.00;99.90;;;;;;1929025;74;20210;-71
2021/09/15 02:32:04;;;;;;;;;;;18.90;99.90;;;;;;1929987;73;20183;-71
2021/09/15 02:34:31;;;;;;;;;;;19.00;99.90;;;;;;1927997;73;20487;-70
2021/09/15 02:36:58;;;;;;;;;;;18.90;99.90;;;;;;1921929;74;20199;-71
2021/09/15 02:39:24;;;;;;;;;;;18.90;99.90;;;;;;1924520;73;20196;-71
2021/09/15 02:41:51;;;;;;;;;;;19.00;99.90;;;;;;1930764;73;20187;-70
2021/09/15 02:44:18;;;;;;;;;;;18.90;99.90;;;;;;1881497;73;20106;-69
2021/09/15 02:46:45;;;;;;;;;;;19.00;99.90;;;;;;1907859;74;20200;-69
2021/09/15 02:49:12;;;;;;;;;;;18.90;99.90;;;;;;1911749;74;20243;-70
2021/09/15 02:51:38;;;;;;;;;;;18.90;99.90;;;;;;1901324;74;20190;-69
2021/09/15 02:54:05;;;;;;;;;;;18.90;99.90;;;;;;1904784;74;20177;-70
2021/09/15 02:56:32;;;;;;;;;;;18.80;99.90;;;;;;1904174;75;20223;-70
2021/09/15 02:58:59;;;;;;;;;;;18.80;99.90;;;;;;1895470;74;20158;-70
2021/09/15 03:01:26;;;;;;;;;;;18.70;99.90;;;;;;1891986;75;20271;-70
2021/09/15 03:03:53;;;;;;;;;;;18.80;99.90;;;;;;1909923;75;20157;-70
2021/09/15 03:06:19;;;;;;;;;;;18.80;99.90;;;;;;1881115;75;20203;-70
2021/09/15 03:08:46;;;;;;;;;;;18.70;99.90;;;;;;1901020;74;20106;-70
2021/09/15 03:11:13;;;;;;;;;;;18.70;99.90;;;;;;1891586;75;20161;-70
2021/09/15 03:13:40;;;;;;;;;;;18.70;99.90;;;;;;1893402;75;20219;-69
2021/09/15 03:16:07;;;;;;;;;;;18.60;99.90;;;;;;1897356;74;20131;-69
2021/09/15 03:18:33;;;;;;;;;;;18.60;99.90;;;;;;1901675;74;20200;-69
2021/09/15 03:21:00;;;;;;;;;;;18.60;99.90;;;;;;1879727;75;20239;-69
2021/09/15 03:23:27;;;;;;;;;;;18.60;99.90;;;;;;1891061;76;20181;-69
2021/09/15 03:25:54;;;;;;;;;;;18.60;99.90;;;;;;1895199;75;20219;-69
2021/09/15 03:28:21;;;;;;;;;;;18.60;99.90;;;;;;1893538;76;20196;-69
2021/09/15 03:30:47;;;;;;;;;;;18.60;99.90;;;;;;1893252;75;20204;-69
2021/09/15 03:33:14;;;;;;;;;;;18.60;99.90;;;;;;1896474;74;20236;-69
2021/09/15 03:35:41;;;;;;;;;;;18.50;99.90;;;;;;1896643;74;20513;-69
2021/09/15 03:38:08;;;;;;;;;;;18.50;99.90;;;;;;1896158;75;20180;-69
2021/09/15 03:40:35;;;;;;;;;;;18.50;99.90;;;;;;1910061;75;20474;-69
2021/09/15 03:43:01;;;;;;;;;;;18.50;99.90;;;;;;1901609;75;20126;-69
2021/09/15 03:45:28;;;;;;;;;;;18.40;99.90;;;;;;1894330;75;20480;-69
2021/09/15 03:47:55;;;;;;;;;;;18.40;99.90;;;;;;1899751;75;20150;-69
2021/09/15 03:50:22;;;;;;;;;;;18.30;99.90;;;;;;1907780;74;20361;-69
2021/09/15 03:52:48;;;;;;;;;;;18.30;99.90;;;;;;1896984;75;20177;-69
2021/09/15 03:55:15;;;;;;;;;;;18.40;99.90;;;;;;1892598;75;20147;-69
2021/09/15 03:57:42;;;;;;;;;;;18.30;99.90;;;;;;1906169;75;20236;-69
2021/09/15 04:00:10;;;;;;;;;;;18.30;99.90;;;;;;1909749;74;20181;-69
2021/09/15 04:02:37;;;;;;;;;;;18.30;99.90;;;;;;1894204;75;20212;-70
2021/09/15 04:05:04;;;;;;;;;;;18.30;99.90;;;;;;1897836;74;20122;-69
2021/09/15 04:07:31;;;;;;;;;;;18.30;99.90;;;;;;1900267;75;20447;-69
2021/09/15 04:09:57;;;;;;;;;;;18.30;99.90;;;;;;1897854;75;20399;-70
2021/09/15 04:12:25;;;;;;;;;;;18.30;99.90;;;;;;1894009;76;20150;-70
2021/09/15 04:14:52;;;;;;;;;;;18.30;99.90;;;;;;1892848;75;20127;-70
2021/09/15 04:17:18;;;;;;;;;;;18.40;99.90;;;;;;1903033;74;20502;-69
2021/09/15 04:19:45;;;;;;;;;;;18.30;99.90;;;;;;1894103;76;20199;-70
2021/09/15 04:22:18;;;;;;;;;;;18.30;99.90;;;;;;1905037;74;20451;-70
2021/09/15 04:32:57;;;;;;;;;;;18.30;99.90;;;;;;1894357;76;20288;-70
2021/09/15 04:35:24;;;;;;;;;;;18.30;99.90;;;;;;1893658;75;20121;-70
2021/09/15 04:37:51;;;;;;;;;;;18.40;99.90;;;;;;1893413;75;20121;-70
2021/09/15 04:40:18;;;;;;;;;;;18.30;99.90;;;;;;1910375;74;20177;-70
2021/09/15 04:42:45;;;;;;;;;;;18.40;99.90;;;;;;1900991;75;20408;-70
2021/09/15 04:45:11;;;;;;;;;;;18.40;99.90;;;;;;1892445;75;20498;-70
2021/09/15 04:47:38;;;;;;;;;;;18.30;99.90;;;;;;1895400;75;20200;-70
2021/09/15 04:50:05;;;;;;;;;;;18.40;99.90;;;;;;1887791;75;20259;-70
2021/09/15 04:52:32;;;;;;;;;;;18.30;99.90;;;;;;1901145;75;20271;-70
2021/09/15 04:54:59;;;;;;;;;;;18.30;99.90;;;;;;1909303;74;20130;-70
2021/09/15 04:57:25;;;;;;;;;;;18.30;99.90;;;;;;1910019;75;20157;-70
2021/09/15 04:59:52;;;;;;;;;;;18.30;99.90;;;;;;1909493;75;20162;-70
2021/09/15 05:02:19;;;;;;;;;;;18.30;99.90;;;;;;1899862;74;20110;-69
2021/09/15 05:04:46;;;;;;;;;;;18.40;99.90;;;;;;1892952;75;20185;-69
2021/09/15 05:07:13;;;;;;;;;;;18.30;99.90;;;;;;1892428;75;20224;-69
2021/09/15 05:09:40;;;;;;;;;;;18.30;99.90;;;;;;1900759;75;20169;-69
2021/09/15 05:12:06;;;;;;;;;;;18.30;99.90;;;;;;1892026;74;20499;-69
2021/09/15 05:14:33;;;;;;;;;;;18.40;99.90;;;;;;1893286;75;20368;-69
2021/09/15 05:17:00;;;;;;;;;;;18.40;99.90;;;;;;1893949;75;20154;-69
2021/09/15 05:19:27;;;;;;;;;;;18.40;99.90;;;;;;1893622;75;20376;-69
2021/09/15 05:21:54;;;;;;;;;;;18.40;99.90;;;;;;1901972;75;20122;-69
2021/09/15 05:24:20;;;;;;;;;;;18.40;99.90;;;;;;1908804;74;20576;-69
2021/09/15 05:26:47;;;;;;;;;;;18.40;99.90;;;;;;1907995;74;20219;-69
2021/09/15 05:29:14;;;;;;;;;;;18.40;99.90;;;;;;1896003;74;20520;-69
2021/09/15 05:31:41;;;;;;;;;;;18.30;99.90;;;;;;1893827;75;20169;-70
2021/09/15 05:34:08;;;;;;;;;;;18.40;99.90;;;;;;1906744;74;20122;-70
2021/09/15 05:36:34;;;;;;;;;;;18.30;99.90;;;;;;1905341;75;20180;-70
2021/09/15 05:39:01;;;;;;;;;;;18.20;99.90;;;;;;1891280;75;20169;-69
2021/09/15 05:41:28;;;;;;;;;;;18.20;99.90;;;;;;1896593;75;20126;-69
2021/09/15 05:43:55;;;;;;;;;;;18.30;99.90;;;;;;1896458;75;20200;-69
2021/09/15 05:46:22;;;;;;;;;;;18.30;99.90;;;;;;1905256;74;20126;-70
2021/09/15 05:48:48;;;;;;;;;;;18.30;99.90;;;;;;1902730;75;20167;-70
2021/09/15 05:51:15;;;;;;;;;;;18.30;99.90;;;;;;1901800;75;20441;-70
2021/09/15 05:53:42;;;;;;;;;;;18.30;99.90;;;;;;1905865;75;20111;-71
2021/09/15 05:56:09;;;;;;;;;;;18.30;99.90;;;;;;1898208;74;20180;-71
2021/09/15 05:58:36;;;;;;;;;;;18.30;99.90;;;;;;1896158;75;20188;-71
2021/09/15 06:01:02;;;;;;;;;;;18.30;99.90;;;;;;1906981;74;20249;-72
2021/09/15 06:03:29;;;;;;;;;;;18.30;99.90;;;;;;1900357;74;20173;-70
2021/09/15 06:05:56;;;;;;;;;;;18.30;99.90;;;;;;1901530;74;20144;-69
2021/09/15 06:08:23;;;;;;;;;;;18.40;99.90;;;;;;1909433;74;20168;-71
2021/09/15 06:10:50;;;;;;;;;;;18.40;99.90;;;;;;1911828;74;20204;-70
2021/09/15 06:13:17;;;;;;;;;;;18.30;99.90;;;;;;1886861;75;20118;-71
2021/09/15 06:15:43;;;;;;;;;;;18.30;99.90;;;;;;1903467;75;20174;-71
2021/09/15 06:18:10;;;;;;;;;;;18.20;99.90;;;;;;1879228;75;20151;-71
2021/09/15 06:20:37;;;;;;;;;;;18.20;99.90;;;;;;1886900;75;20223;-71
2021/09/15 06:23:05;;;;;;;;;;;18.20;99.90;;;;;;1880205;75;20164;-70
2021/09/15 06:25:31;;;;;;;;;;;18.30;99.90;;;;;;1889574;74;20201;-72
2021/09/15 06:27:58;;;;;;;;;;;18.30;99.90;;;;;;1901698;74;20176;-71
2021/09/15 06:30:25;;;;;;;;;;;18.30;99.90;;;;;;1881697;74;20227;-72
2021/09/15 06:32:52;;;;;;;;;;;18.30;99.90;;;;;;1901454;74;20172;-72
2021/09/15 06:35:19;;;;;;;;;;;18.30;99.90;;;;;;1895821;76;20377;-72
2021/09/15 06:37:46;;;;;;;;;;;18.40;99.90;;;;;;1896667;75;20162;-70
2021/09/15 06:40:12;;;;;;;;;;;18.40;99.90;;;;;;1910377;75;20172;-71
2021/09/15 06:42:39;;;;;;;;;;;18.40;99.90;;;;;;1907359;74;20300;-72
2021/09/15 06:45:06;;;;;;;;;;;18.40;99.90;;;;;;1914202;74;20149;-72
2021/09/15 06:47:35;;;;;;;;;;;18.40;99.90;;;;;;1896761;75;21282;-69
2021/09/15 06:50:01;;;;;;;;;;;18.40;99.90;;;;;;1895872;75;20118;-69
2021/09/15 06:52:28;;;;;;;;;;;18.40;99.90;;;;;;1908549;74;20502;-70
2021/09/15 06:54:55;;;;;;;;;;;18.50;99.90;;;;;;1897819;74;20184;-69
2021/09/15 06:57:22;;;;;;;;;;;18.50;99.90;;;;;;1908229;74;20517;-70
2021/09/15 06:59:49;;;;;;;;;;;18.50;99.90;;;;;;1912455;74;20166;-70
2021/09/15 07:02:15;;;;;;;;;;;18.50;99.90;;;;;;1910210;74;20445;-70
2021/09/15 07:04:42;;;;;;;;;;;18.50;99.90;;;;;;1909172;74;20196;-70
2021/09/15 07:07:09;;;;;;;;;;;18.50;99.90;;;;;;1917981;73;20241;-70
2021/09/15 07:09:36;;;;;;;;;;;18.60;99.90;;;;;;1905278;74;20181;-70
2021/09/15 07:12:03;;;;;;;;;;;18.50;99.90;;;;;;1908756;75;20220;-69
2021/09/15 07:14:30;;;;;;;;;;;18.50;99.90;;;;;;1908064;74;20424;-70
2021/09/15 07:16:56;;;;;;;;;;;18.60;99.90;;;;;;1906264;75;20212;-70
2021/09/15 07:19:23;;;;;;;;;;;18.60;99.90;;;;;;1901671;75;20450;-70
2021/09/15 07:21:50;;;;;;;;;;;18.60;99.90;;;;;;1917738;74;20196;-70
2021/09/15 07:24:17;;;;;;;;;;;18.70;99.90;;;;;;1916094;73;20176;-70
2021/09/15 07:26:44;;;;;;;;;;;18.60;99.90;;;;;;1884449;75;20120;-70
2021/09/15 07:29:12;;;;;;;;;;;18.70;99.90;;;;;;1893834;74;20435;-70
2021/09/15 07:31:39;;;;;;;;;;;18.70;99.90;;;;;;1897374;74;20473;-70
2021/09/15 07:34:06;;;;;;;;;;;18.60;99.90;;;;;;1897900;74;20264;-70
2021/09/15 07:36:34;;;;;;;;;;;18.60;99.90;;;;;;1894439;75;20340;-70
2021/09/15 07:39:00;;;;;;;;;;;18.70;99.90;;;;;;1894203;76;20189;-69
2021/09/15 07:41:27;;;;;;;;;;;18.70;99.90;;;;;;1894255;75;20455;-69
2021/09/15 07:43:54;;;;;;;;;;;18.80;99.90;;;;;;1889670;74;20160;-69
2021/09/15 07:46:22;;;;;;;;;;;18.80;99.90;;;;;;1908940;74;20423;-70
2021/09/15 07:48:49;;;;;;;;;;;18.70;99.90;;;;;;1910503;75;20203;-70
2021/09/15 07:51:16;;;;;;;;;;;18.70;99.90;;;;;;1899380;74;20122;-70
2021/09/15 07:53:43;;;;;;;;;;;18.70;99.90;;;;;;1908118;75;20280;-69
2021/09/15 07:56:10;;;;;;;;;;;18.60;99.90;;;;;;1904244;74;20251;-70
2021/09/15 07:58:37;;;;;;;;;;;18.70;99.90;;;;;;1915059;74;20410;-69
2021/09/15 08:01:04;;;;;;;;;;;18.70;99.90;;;;;;1887943;75;20214;-69
2021/09/15 08:03:31;;;;;;;;;;;18.60;99.90;;;;;;1897192;74;20229;-70
2021/09/15 08:05:59;;;;;;;;;;;18.60;99.90;;;;;;1910366;74;20794;-69
2021/09/15 08:08:26;;;;;;;;;;;18.60;99.90;;;;;;1913425;74;20243;-70
2021/09/15 08:10:52;;;;;;;;;;;18.60;99.90;;;;;;1896434;74;20194;-70
2021/09/15 08:13:20;;;;;;;;;;;18.60;99.90;;;;;;1903911;74;20152;-70
2021/09/15 08:15:47;;;;;;;;;;;18.70;99.90;;;;;;1906611;74;20181;-70
2021/09/15 08:18:14;;;;;;;;;;;18.70;99.90;;;;;;1893986;75;20450;-70
2021/09/15 08:20:45;;;;;;;;;;;18.60;99.90;;;;;;1893955;76;20167;-70
2021/09/15 08:23:09;;;;;;;;;;;18.50;99.90;;;;;;1891152;75;20164;-70
2021/09/15 08:25:36;;;;;;;;;;;18.50;99.90;;;;;;1910739;74;20317;-70
2021/09/15 08:28:03;;;;;;;;;;;18.50;99.90;;;;;;1910844;75;20215;-70
2021/09/15 08:30:30;;;;;;;;;;;18.60;99.90;;;;;;1900976;74;20145;-70
2021/09/15 08:32:56;;;;;;;;;;;18.60;99.90;;;;;;1912888;74;20181;-70
2021/09/15 08:35:23;;;;;;;;;;;18.60;99.90;;;;;;1919378;74;20174;-70
2021/09/15 08:37:50;;;;;;;;;;;18.60;99.90;;;;;;1925940;74;20119;-71
2021/09/15 08:40:17;;;;;;;;;;;18.50;99.90;;;;;;1905354;74;20181;-71
2021/09/15 08:42:44;;;;;;;;;;;18.50;99.90;;;;;;1894299;75;20142;-71
2021/09/15 08:45:11;;;;;;;;;;;18.60;99.90;;;;;;1911260;74;20167;-70
2021/09/15 08:47:40;;;;;;;;;;;18.60;99.90;;;;;;1910515;75;20430;-70
2021/09/15 08:50:07;;;;;;;;;;;18.60;99.90;;;;;;1903889;74;20284;-70
2021/09/15 08:52:34;;;;;;;;;;;18.60;99.90;;;;;;1895015;74;20375;-70
2021/09/15 08:55:02;;;;;;;;;;;18.60;99.90;;;;;;1900812;74;20204;-70
2021/09/15 08:57:28;;;;;;;;;;;18.60;99.90;;;;;;1908456;74;20150;-70
2021/09/15 08:59:55;;;;;;;;;;;18.60;99.90;;;;;;1894762;74;20302;-70
2021/09/15 09:02:24;;;;;;;;;;;18.60;99.90;;;;;;1910325;74;20192;-70
2021/09/15 09:05:00;;;;;;;;;;;18.60;99.90;;;;;;1915245;74;20183;-70
2021/09/15 09:07:27;;;;;;;;;;;18.70;99.90;;;;;;1922260;73;20404;-70
2021/09/15 09:09:55;;;;;;;;;;;18.70;99.90;;;;;;1912419;74;20449;-70
2021/09/15 09:12:24;;;;;;;;;;;18.70;99.90;;;;;;1909500;74;20457;-70
2021/09/15 09:14:51;;;;;;;;;;;18.70;99.90;;;;;;1898977;74;20205;-70
2021/09/15 09:17:29;;;;;;;;;;;18.60;99.90;;;;;;1917219;73;20165;-70
2021/09/15 09:20:14;;;;;;;;;;;18.60;99.90;;;;;;1908524;74;20169;-71
2021/09/15 09:22:51;;;;;;;;;;;18.50;99.90;;;;;;1891534;75;20217;-71
2021/09/15 09:25:21;;;;;;;;;;;18.60;99.90;;;;;;1881256;74;20162;-71
2021/09/15 09:27:47;;;;;;;;;;;18.60;99.90;;;;;;1894619;74;20414;-70
2021/09/15 09:30:31;;;;;;;;;;;18.70;99.90;;;;;;1917505;74;20225;-70
2021/09/15 09:32:58;;;;;;;;;;;18.70;99.90;;;;;;1910314;74;20185;-70
2021/09/15 09:35:25;;;;;;;;;;;18.70;99.90;;;;;;1901927;74;20126;-71
2021/09/15 09:37:51;;;;;;;;;;;18.70;99.90;;;;;;1909981;74;20177;-69
2021/09/15 09:40:22;;;;;;;;;;;18.70;99.90;;;;;;1914556;74;20250;-70
2021/09/15 09:42:49;;;;;;;;;;;18.60;99.90;;;;;;1896907;74;20131;-69
2021/09/15 09:45:21;;;;;;;;;;;18.60;99.90;;;;;;1919134;74;20183;-70
2021/09/15 09:47:46;;;;;;;;;;;18.60;99.90;;;;;;1915107;74;20220;-71
2021/09/15 09:50:17;;;;;;;;;;;18.60;99.90;;;;;;1905011;74;20487;-70
2021/09/15 09:52:54;;;;;;;;;;;18.60;99.90;;;;;;1905975;74;20148;-70
2021/09/15 09:55:21;;;;;;;;;;;18.70;99.90;;;;;;1897938;74;20199;-70
2021/09/15 09:57:50;;;;;;;;;;;18.70;99.90;;;;;;1886474;74;20161;-70
2021/09/15 10:00:17;;;;;;;;;;;18.70;99.90;;;;;;1891293;75;20192;-70
2021/09/15 10:02:45;;;;;;;;;;;18.70;99.90;;;;;;1892274;74;20280;-70
2021/09/15 10:05:13;;;;;;;;;;;18.70;99.90;;;;;;1891699;74;20165;-70
2021/09/15 10:07:40;;;;;;;;;;;18.70;99.90;;;;;;1886752;74;20189;-70
2021/09/15 10:10:08;;;;;;;;;;;18.70;99.90;;;;;;1895503;75;20166;-70
2021/09/15 10:12:35;;;;;;;;;;;18.70;99.90;;;;;;1905039;74;20165;-70
2021/09/15 10:15:02;;;;;;;;;;;18.70;99.90;;;;;;1894020;76;20202;-70
2021/09/15 10:17:30;;;;;;;;;;;18.70;99.90;;;;;;1905264;74;20443;-70
2021/09/15 10:19:58;;;;;;;;;;;18.70;99.90;;;;;;1910476;74;20173;-70
2021/09/15 10:22:35;;;;;;;;;;;18.70;99.90;;;;;;1910323;74;20119;-71
2021/09/15 10:25:03;;;;;;;;;;;18.80;99.90;;;;;;1910112;75;20173;-69
2021/09/15 10:27:31;;;;;;;;;;;18.80;99.90;;;;;;1900750;74;20185;-70
2021/09/15 10:30:02;;;;;;;;;;;18.70;99.90;;;;;;1897130;74;20149;-70
2021/09/15 10:32:32;;;;;;;;;;;18.70;99.90;;;;;;1902319;74;20202;-71
2021/09/15 10:35:01;;;;;;;;;;;18.70;99.90;;;;;;1910408;75;20478;-70
2021/09/15 10:37:32;;;;;;;;;;;18.70;99.90;;;;;;1907909;74;20172;-70
2021/09/15 10:40:00;;;;;;;;;;;18.70;99.90;;;;;;1911066;74;20114;-70
2021/09/15 10:42:38;;;;;;;;;;;18.70;99.90;;;;;;1910542;74;20119;-71
2021/09/15 10:45:12;;;;;;;;;;;18.70;99.90;;;;;;1926248;73;20241;-72
2021/09/15 10:47:40;;;;;;;;;;;18.70;99.90;;;;;;1926041;74;20171;-72
2021/09/15 10:50:09;;;;;;;;;;;18.70;99.90;;;;;;1914173;73;20126;-74
2021/09/15 10:52:40;;;;;;;;;;;18.70;99.90;;;;;;1910022;74;20190;-72
2021/09/15 10:55:28;;;;;;;;;;;18.70;99.90;;;;;;1909260;75;20431;-72
2021/09/15 10:57:51;;;;;;;;;;;18.70;99.90;;;;;;1894386;75;20518;-71
2021/09/15 11:00:21;;;;;;;;;;;18.70;99.90;;;;;;1898693;75;20304;-71
2021/09/15 11:02:49;;;;;;;;;;;18.70;99.90;;;;;;1919052;74;20197;-70
2021/09/15 11:05:29;;;;;;;;;;;18.80;99.90;;;;;;1912194;74;20523;-70
2021/09/15 11:07:57;;;;;;;;;;;18.70;99.90;;;;;;1912787;74;20169;-70
2021/09/15 11:10:35;;;;;;;;;;;18.70;99.90;;;;;;1909558;75;20169;-70
2021/09/15 11:13:10;;;;;;;;;;;18.70;99.90;;;;;;1907952;74;20169;-70
2021/09/15 11:15:38;;;;;;;;;;;18.70;99.90;;;;;;1902478;75;20158;-70
2021/09/15 11:18:05;;;;;;;;;;;18.70;99.90;;;;;;1899970;74;20426;-70
2021/09/15 11:20:34;;;;;;;;;;;18.70;99.90;;;;;;1893219;75;20188;-70
2021/09/15 11:23:08;;;;;;;;;;;18.70;99.90;;;;;;1915028;73;20178;-70
2021/09/15 11:25:35;;;;;;;;;;;18.70;99.90;;;;;;1895987;75;20261;-70
2021/09/15 11:28:09;;;;;;;;;;;18.80;99.90;;;;;;1898284;75;20859;-70
2021/09/15 11:30:37;;;;;;;;;;;18.80;99.90;;;;;;1891870;75;20476;-70
2021/09/15 11:33:04;;;;;;;;;;;18.70;99.90;;;;;;1903801;74;20149;-70
2021/09/15 11:35:35;;;;;;;;;;;18.70;99.90;;;;;;1896377;75;20181;-71
2021/09/15 11:38:02;;;;;;;;;;;18.70;99.90;;;;;;1908535;75;20181;-70
2021/09/15 11:40:30;;;;;;;;;;;18.80;99.90;;;;;;1910123;75;20166;-70
2021/09/15 11:42:58;;;;;;;;;;;18.80;99.90;;;;;;1900954;74;20182;-71
2021/09/15 11:45:25;;;;;;;;;;;18.90;99.90;;;;;;1897141;75;20164;-71
2021/09/15 11:47:53;;;;;;;;;;;18.90;99.90;;;;;;1907532;74;20162;-71
2021/09/15 11:50:24;;;;;;;;;;;18.90;99.90;;;;;;1897878;75;20177;-71
2021/09/15 11:52:58;;;;;;;;;;;18.80;99.90;;;;;;1896345;75;20169;-71
2021/09/15 11:55:21;;;;;;;;;;;18.80;99.90;;;;;;1906808;75;20204;-70
2021/09/15 11:57:49;;;;;;;;;;;18.80;99.90;;;;;;1920252;74;20456;-70
2021/09/15 12:00:16;;;;;;;;;;;18.80;99.90;;;;;;1898628;74;20154;-73
2021/09/15 12:02:45;;;;;;;;;;;18.90;99.90;;;;;;1902461;74;20219;-73
2021/09/15 12:05:12;;;;;;;;;;;18.80;99.90;;;;;;1910561;74;20302;-72
2021/09/15 12:07:40;;;;;;;;;;;18.80;99.90;;;;;;1909953;74;20131;-72
2021/09/15 12:10:08;;;;;;;;;;;18.80;99.90;;;;;;1907172;75;20157;-71
2021/09/15 12:12:36;;;;;;;;;;;18.80;99.90;;;;;;1909439;75;20169;-71
2021/09/15 12:15:03;;;;;;;;;;;18.80;99.90;;;;;;1921995;74;20191;-71
2021/09/15 12:17:30;;;;;;;;;;;18.80;99.90;;;;;;1905355;74;20165;-71
2021/09/15 12:19:57;;;;;;;;;;;18.80;99.90;;;;;;1910443;75;20099;-71
2021/09/15 12:22:31;;;;;;;;;;;18.80;99.90;;;;;;1910657;74;20167;-71
2021/09/15 12:25:00;;;;;;;;;;;18.80;99.90;;;;;;1922991;74;20188;-71
2021/09/15 12:27:28;;;;;;;;;;;18.80;99.90;;;;;;1902386;73;20160;-70
2021/09/15 12:29:59;;;;;;;;;;;18.80;99.90;;;;;;1908925;74;20173;-71
2021/09/15 12:32:33;;;;;;;;;;;18.80;99.90;;;;;;1921154;74;20162;-71
2021/09/15 12:35:00;;;;;;;;;;;18.70;99.90;;;;;;1925972;73;20143;-71
2021/09/15 12:37:26;;;;;;;;;;;18.70;99.90;;;;;;1912707;74;20161;-71
2021/09/15 12:40:01;;;;;;;;;;;18.70;99.90;;;;;;1910459;75;20435;-71
2021/09/15 12:42:32;;;;;;;;;;;18.70;99.90;;;;;;1903386;74;20188;-71
2021/09/15 12:45:00;;;;;;;;;;;18.70;99.90;;;;;;1917274;74;20161;-71
2021/09/15 12:47:34;;;;;;;;;;;18.70;99.90;;;;;;1904366;75;20451;-72
2021/09/15 12:50:05;;;;;;;;;;;18.70;99.90;;;;;;1906854;74;20173;-72
2021/09/15 12:52:32;;;;;;;;;;;18.70;99.90;;;;;;1924881;73;20154;-72
2021/09/15 12:55:00;;;;;;;;;;;18.80;99.90;;;;;;1903094;74;20154;-72
2021/09/15 12:57:31;;;;;;;;;;;18.80;99.90;;;;;;1911645;74;20239;-72
2021/09/15 13:00:16;;;;;;;;;;;18.80;99.90;;;;;;1926485;74;20186;-73
2021/09/15 13:02:53;;;;;;;;;;;18.90;99.90;;;;;;1906016;74;20169;-72
2021/09/15 13:05:20;;;;;;;;;;;18.90;99.90;;;;;;1908933;75;20118;-71
2021/09/15 13:07:47;;;;;;;;;;;18.90;99.90;;;;;;1897834;75;20173;-72
2021/09/15 13:10:14;;;;;;;;;;;19.00;99.90;;;;;;1905145;74;20156;-71
2021/09/15 13:12:41;;;;;;;;;;;19.00;99.90;;;;;;1910790;74;20541;-72
2021/09/15 13:15:08;;;;;;;;;;;19.10;99.90;;;;;;1909779;74;20172;-72
2021/09/15 13:17:35;;;;;;;;;;;19.10;99.90;;;;;;1910395;75;20196;-72
2021/09/15 13:20:02;;;;;;;;;;;19.10;99.90;;;;;;1896327;74;20154;-72
2021/09/15 13:22:28;;;;;;;;;;;19.10;99.90;;;;;;1900430;74;20522;-72
2021/09/15 13:24:55;;;;;;;;;;;19.10;99.90;;;;;;1901069;74;20181;-72
2021/09/15 13:27:22;;;;;;;;;;;19.10;99.90;;;;;;1917131;74;20126;-72
2021/09/15 13:29:49;;;;;;;;;;;19.10;99.90;;;;;;1905065;74;20296;-72
2021/09/15 13:32:16;;;;;;;;;;;19.10;99.90;;;;;;1906524;74;20436;-71
2021/09/15 13:34:43;;;;;;;;;;;19.10;99.90;;;;;;1908984;74;20257;-71
2021/09/15 13:37:10;;;;;;;;;;;19.10;99.90;;;;;;1910589;75;20157;-72
2021/09/15 13:39:37;;;;;;;;;;;19.20;99.90;;;;;;1905868;74;20412;-72
2021/09/15 13:42:04;;;;;;;;;;;19.20;99.90;;;;;;1917256;74;20467;-72
2021/09/15 13:44:31;;;;;;;;;;;19.20;99.90;;;;;;1915998;73;20388;-72
2021/09/15 13:46:57;;;;;;;;;;;19.20;99.90;;;;;;1894009;74;20167;-72
2021/09/15 13:49:24;;;;;;;;;;;19.20;99.90;;;;;;1898085;74;20228;-72
2021/09/15 13:51:52;;;;;;;;;;;19.30;99.90;;;;;;1919995;74;20127;-72
2021/09/15 13:54:19;;;;;;;;;;;19.20;99.90;;;;;;1888619;74;20206;-72
2021/09/15 13:56:45;;;;;;;;;;;19.30;99.90;;;;;;1877769;76;20172;-72
2021/09/15 13:59:12;;;;;;;;;;;19.30;99.90;;;;;;1903923;74;20162;-72
2021/09/15 14:01:39;;;;;;;;;;;19.40;99.90;;;;;;1921025;74;20131;-72
2021/09/15 14:04:06;;;;;;;;;;;19.40;99.90;;;;;;1901610;73;20261;-72
2021/09/15 14:06:33;;;;;;;;;;;19.40;99.90;;;;;;1915209;74;20184;-72
2021/09/15 14:09:00;;;;;;;;;;;19.40;99.90;;;;;;1894726;74;20196;-72
2021/09/15 14:11:27;;;;;;;;;;;19.40;99.90;;;;;;1898051;74;20181;-72
2021/09/15 14:13:54;;;;;;;;;;;19.40;99.90;;;;;;1921602;74;20150;-73
2021/09/15 14:16:21;;;;;;;;;;;19.40;99.90;;;;;;1912475;74;20181;-74
2021/09/15 14:18:48;;;;;;;;;;;19.40;99.90;;;;;;1910610;73;20434;-74
2021/09/15 14:21:15;;;;;;;;;;;19.40;99.90;;;;;;1913299;74;20185;-72
2021/09/15 14:23:42;;;;;;;;;;;19.40;99.90;;;;;;1909866;74;20165;-73
2021/09/15 14:26:09;;;;;;;;;;;19.40;99.90;;;;;;1902078;74;20165;-73